createdAt,value
2019-05-06T00:02:27.933Z,27.40
2019-05-06T00:04:59.449Z,24.40
2019-05-06T00:07:31.374Z,27.00
2019-05-06T00:10:05.809Z,32.20
2019-05-06T00:12:37.994Z,30.00
2019-05-06T00:15:09.708Z,28.60
2019-05-06T00:17:44.590Z,28.20
2019-05-06T00:20:16.456Z,30.80
2019-05-06T00:22:48.698Z,30.80
2019-05-06T00:25:27.305Z,33.40
2019-05-06T00:28:16.896Z,30.20
2019-05-06T00:31:09.353Z,32.40
2019-05-06T00:33:36.723Z,37.20
2019-05-06T00:36:08.556Z,35.00
2019-05-06T00:38:44.685Z,40.20
2019-05-06T00:41:24.842Z,42.40
2019-05-06T00:44:03.911Z,41.80
2019-05-06T00:46:35.229Z,31.40
2019-05-06T00:49:07.445Z,36.00
2019-05-06T00:51:44.006Z,48.40
2019-05-06T00:54:20.423Z,41.60
2019-05-06T00:56:54.148Z,48.20
2019-05-06T00:59:26.882Z,46.40
2019-05-06T01:02:01.926Z,61.00
2019-05-06T01:04:33.958Z,68.60
2019-05-06T01:07:06.185Z,55.00
2019-05-06T01:09:38.145Z,56.60
2019-05-06T01:12:10.271Z,48.20
2019-05-06T01:14:46.092Z,37.20
2019-05-06T01:17:17.932Z,49.00
2019-05-06T01:19:50.741Z,50.00
2019-05-06T01:22:24.502Z,47.80
2019-05-06T01:24:55.909Z,53.60
2019-05-06T01:27:27.833Z,49.60
2019-05-06T01:29:59.474Z,51.40
2019-05-06T01:32:31.849Z,50.00
2019-05-06T01:35:04.762Z,37.40
2019-05-06T01:37:36.805Z,33.80
2019-05-06T01:40:32.264Z,43.20
2019-05-06T01:43:14.382Z,42.20
2019-05-06T01:45:45.233Z,41.60
2019-05-06T01:48:18.726Z,37.60
2019-05-06T01:50:50.277Z,41.40
2019-05-06T01:53:23.882Z,40.80
2019-05-06T01:55:55.788Z,43.00
2019-05-06T01:58:27.956Z,42.20
2019-05-06T02:00:59.825Z,39.40
2019-05-06T02:03:31.666Z,43.00
2019-05-06T02:06:04.869Z,41.00
2019-05-06T02:08:37.299Z,37.60
2019-05-06T02:11:09.058Z,41.80
2019-05-06T02:13:40.855Z,42.20
2019-05-06T02:16:14.602Z,43.00
2019-05-06T02:18:46.277Z,42.00
2019-05-06T02:21:49.487Z,45.00
2019-05-06T02:24:25.941Z,45.40
2019-05-06T02:26:58.387Z,51.40
2019-05-06T02:29:34.174Z,54.20
2019-05-06T02:32:36.496Z,61.00
2019-05-06T02:35:20.242Z,54.00
2019-05-06T02:37:54.770Z,58.20
2019-05-06T02:40:27.882Z,50.00
2019-05-06T02:43:02.966Z,56.20
2019-05-06T02:45:33.725Z,52.20
2019-05-06T02:48:13.749Z,52.80
2019-05-06T02:51:17.634Z,58.40
2019-05-06T02:53:53.834Z,56.80
2019-05-06T02:56:25.110Z,56.00
2019-05-06T02:58:58.525Z,57.00
2019-05-06T03:01:35.426Z,58.20
2019-05-06T03:04:07.347Z,54.60
2019-05-06T03:06:40.346Z,52.60
2019-05-06T03:09:13.589Z,57.40
2019-05-06T03:11:45.256Z,57.40
2019-05-06T03:14:17.049Z,56.20
2019-05-06T03:16:48.901Z,54.60
2019-05-06T03:19:23.803Z,50.80
2019-05-06T03:22:34.141Z,53.60
2019-05-06T03:25:08.317Z,51.20
2019-05-06T03:27:39.881Z,58.00
2019-05-06T03:30:16.444Z,64.00
2019-05-06T03:33:21.132Z,58.20
2019-05-06T03:35:40.576Z,55.60
2019-05-06T03:37:53.517Z,54.80
2019-05-06T03:40:25.296Z,56.20
2019-05-06T03:42:58.601Z,59.60
2019-05-06T03:45:38.163Z,59.60
2019-05-06T03:48:15.588Z,51.60
2019-05-06T03:50:48.079Z,55.40
2019-05-06T03:53:20.076Z,56.40
2019-05-06T03:55:54.536Z,54.20
2019-05-06T03:58:27.003Z,52.40
2019-05-06T04:01:00.566Z,56.00
2019-05-06T04:03:43.853Z,53.40
2019-05-06T04:06:06.295Z,54.80
2019-05-06T04:08:38.496Z,48.60
2019-05-06T04:11:13.409Z,52.80
2019-05-06T04:13:44.423Z,47.20
2019-05-06T04:16:25.801Z,42.40
2019-05-06T04:19:13.083Z,42.60
2019-05-06T04:21:54.217Z,34.20
2019-05-06T04:24:37.177Z,39.80
2019-05-06T04:27:50.191Z,35.00
2019-05-06T04:30:24.356Z,35.60
2019-05-06T04:32:55.485Z,38.20
2019-05-06T04:35:28.439Z,27.00
2019-05-06T04:38:02.944Z,39.80
2019-05-06T04:40:34.147Z,35.80
2019-05-06T04:43:06.141Z,40.40
2019-05-06T04:45:38.915Z,28.40
2019-05-06T04:48:14.140Z,41.00
2019-05-06T04:50:45.421Z,38.40
2019-05-06T04:53:17.358Z,41.60
2019-05-06T04:55:49.419Z,39.00
2019-05-06T04:58:23.286Z,34.00
2019-05-06T05:00:54.431Z,36.40
2019-05-06T05:03:26.784Z,37.40
2019-05-06T05:06:01.772Z,43.60
2019-05-06T05:08:38.047Z,40.60
2019-05-06T05:11:36.867Z,45.80
2019-05-06T05:14:25.702Z,36.60
2019-05-06T05:17:04.004Z,30.80
2019-05-06T05:19:36.389Z,33.40
2019-05-06T05:22:08.188Z,29.60
2019-05-06T05:24:40.056Z,33.80
2019-05-06T05:27:12.537Z,32.40
2019-05-06T05:29:44.481Z,26.20
2019-05-06T05:32:16.389Z,27.60
2019-05-06T05:34:48.504Z,28.60
2019-05-06T05:37:23.289Z,41.40
2019-05-06T05:39:55.178Z,29.40
2019-05-06T05:42:33.352Z,27.00
2019-05-06T05:45:05.291Z,22.20
2019-05-06T05:47:37.504Z,22.40
2019-05-06T05:50:32.484Z,21.80
2019-05-06T05:53:07.064Z,26.00
2019-05-06T05:55:39.861Z,20.60
2019-05-06T05:58:12.951Z,24.00
2019-05-06T06:00:45.007Z,21.20
2019-05-06T06:03:16.865Z,14.40
2019-05-06T06:05:49.327Z,24.40
2019-05-06T06:08:22.843Z,19.20
2019-05-06T06:11:04.305Z,20.60
2019-05-06T06:13:35.998Z,18.40
2019-05-06T06:16:26.553Z,22.20
2019-05-06T06:19:27.375Z,18.60
2019-05-06T06:22:02.791Z,16.00
2019-05-06T06:24:36.607Z,19.60
2019-05-06T06:27:08.607Z,21.40
2019-05-06T06:29:41.800Z,14.20
2019-05-06T06:32:16.332Z,15.20
2019-05-06T06:35:10.132Z,17.40
2019-05-06T06:37:43.834Z,10.60
2019-05-06T06:40:18.554Z,17.60
2019-05-06T06:42:53.491Z,22.00
2019-05-06T06:45:25.232Z,22.60
2019-05-06T06:47:57.088Z,22.80
2019-05-06T06:50:29.550Z,21.60
2019-05-06T06:53:03.086Z,13.80
2019-05-06T06:55:38.510Z,15.80
2019-05-06T06:58:24.847Z,16.00
2019-05-06T07:01:15.293Z,16.80
2019-05-06T07:03:55.149Z,17.40
2019-05-06T07:06:34.409Z,15.60
2019-05-06T07:09:07.951Z,17.20
2019-05-06T07:11:39.712Z,13.60
2019-05-06T07:14:13.580Z,11.80
2019-05-06T07:16:45.471Z,19.80
2019-05-06T07:19:22.922Z,17.80
2019-05-06T07:21:56.924Z,18.00
2019-05-06T07:24:32.303Z,17.60
2019-05-06T07:27:12.663Z,17.40
2019-05-06T07:29:48.285Z,16.40
2019-05-06T07:32:19.449Z,19.40
2019-05-06T07:34:53.109Z,22.40
2019-05-06T07:37:25.107Z,16.00
2019-05-06T07:39:58.068Z,17.80
2019-05-06T07:42:39.437Z,17.80
2019-05-06T07:45:32.905Z,17.60
2019-05-06T07:48:12.659Z,20.40
2019-05-06T07:50:43.982Z,20.20
2019-05-06T07:53:16.396Z,23.60
2019-05-06T07:55:48.612Z,20.20
2019-05-06T07:58:22.641Z,18.20
2019-05-06T08:00:54.610Z,20.40
2019-05-06T08:03:26.996Z,18.00
2019-05-06T08:05:59.154Z,18.00
2019-05-06T08:08:32.905Z,16.80
2019-05-06T08:11:05.254Z,18.20
2019-05-06T08:13:37.021Z,20.20
2019-05-06T08:16:09.663Z,16.20
2019-05-06T08:18:42.549Z,19.20
2019-05-06T08:21:22.373Z,18.40
2019-05-06T08:23:54.965Z,16.60
2019-05-06T08:26:28.355Z,17.40
2019-05-06T08:29:02.648Z,17.40
2019-05-06T08:31:35.954Z,14.40
2019-05-06T08:34:07.579Z,16.20
2019-05-06T08:37:04.665Z,20.80
2019-05-06T08:39:36.534Z,17.80
2019-05-06T08:42:08.943Z,16.40
2019-05-06T08:44:42.739Z,15.20
2019-05-06T08:47:14.835Z,20.20
2019-05-06T08:50:12.663Z,17.80
2019-05-06T08:52:59.969Z,13.60
2019-05-06T08:55:34.684Z,16.60
2019-05-06T08:58:06.604Z,12.80
2019-05-06T09:01:02.698Z,16.60
2019-05-06T09:03:34.024Z,13.80
2019-05-06T09:06:07.550Z,15.60
2019-05-06T09:08:40.203Z,14.20
2019-05-06T09:11:12.267Z,16.00
2019-05-06T09:13:44.447Z,14.60
2019-05-06T09:16:16.236Z,13.20
2019-05-06T09:18:48.134Z,10.40
2019-05-06T09:21:22.410Z,16.20
2019-05-06T09:23:53.855Z,16.20
2019-05-06T09:26:32.526Z,15.60
2019-05-06T09:29:28.860Z,17.20
2019-05-06T09:32:04.158Z,17.20
2019-05-06T09:34:53.112Z,15.60
2019-05-06T09:37:25.016Z,18.00
2019-05-06T09:39:56.544Z,12.60
2019-05-06T09:42:28.275Z,18.40
2019-05-06T09:45:02.284Z,16.80
2019-05-06T09:48:03.513Z,14.60
2019-05-06T09:50:46.316Z,19.00
2019-05-06T09:53:23.089Z,13.40
2019-05-06T09:56:13.329Z,17.80
2019-05-06T09:58:45.735Z,18.00
2019-05-06T10:01:17.746Z,15.80
2019-05-06T10:03:49.997Z,16.60
2019-05-06T10:06:22.282Z,18.80
2019-05-06T10:08:54.216Z,18.00
2019-05-06T10:11:25.951Z,15.20
2019-05-06T10:13:58.762Z,16.60
2019-05-06T10:16:32.515Z,16.60
2019-05-06T10:19:04.679Z,16.00
2019-05-06T10:21:36.483Z,17.60
2019-05-06T10:24:08.569Z,18.80
2019-05-06T10:26:45.529Z,18.80
2019-05-06T10:29:29.278Z,18.20
2019-05-06T10:32:27.957Z,15.40
2019-05-06T10:35:02.783Z,10.60
2019-05-06T10:38:12.390Z,17.20
2019-05-06T10:41:00.042Z,15.20
2019-05-06T10:43:53.205Z,13.00
2019-05-06T10:46:25.556Z,18.60
2019-05-06T10:48:57.121Z,16.20
2019-05-06T10:51:35.385Z,14.00
2019-05-06T10:54:07.162Z,16.00
2019-05-06T10:56:57.585Z,15.80
2019-05-06T10:59:32.458Z,23.40
2019-05-06T11:02:17.617Z,18.20
2019-05-06T11:04:49.833Z,17.20
2019-05-06T11:07:31.454Z,17.00
2019-05-06T11:09:55.341Z,17.00
2019-05-06T11:12:28.346Z,18.80
2019-05-06T11:15:03.715Z,17.20
2019-05-06T11:17:36.003Z,17.20
2019-05-06T11:20:10.588Z,21.60
2019-05-06T11:22:43.541Z,12.80
2019-05-06T11:25:15.757Z,20.60
2019-05-06T11:27:47.465Z,15.00
2019-05-06T11:30:30.080Z,17.60
2019-05-06T11:33:12.636Z,15.60
2019-05-06T11:36:02.256Z,16.20
2019-05-06T11:38:33.897Z,17.60
2019-05-06T11:41:05.949Z,17.00
2019-05-06T11:43:37.576Z,14.80
2019-05-06T11:46:09.193Z,16.60
2019-05-06T11:48:43.032Z,16.60
2019-05-06T11:51:16.053Z,14.20
2019-05-06T11:53:48.701Z,15.40
2019-05-06T11:56:23.026Z,18.00
2019-05-06T11:58:57.537Z,12.60
2019-05-06T12:01:37.272Z,18.40
2019-05-06T12:04:09.177Z,15.60
2019-05-06T12:06:42.331Z,16.00
2019-05-06T12:09:16.944Z,15.40
2019-05-06T12:11:48.332Z,15.40
2019-05-06T12:14:20.125Z,15.60
2019-05-06T12:16:54.705Z,11.00
2019-05-06T12:19:25.647Z,16.80
2019-05-06T12:21:57.801Z,16.40
2019-05-06T12:24:29.860Z,15.00
2019-05-06T12:27:03.284Z,16.60
2019-05-06T12:29:38.013Z,13.00
2019-05-06T12:32:28.340Z,15.60
2019-05-06T12:35:03.507Z,12.80
2019-05-06T12:37:35.922Z,18.20
2019-05-06T12:40:08.164Z,20.00
2019-05-06T12:42:44.459Z,18.80
2019-05-06T12:45:35.587Z,12.20
2019-05-06T12:48:16.217Z,18.40
2019-05-06T12:50:48.331Z,14.60
2019-05-06T12:53:23.014Z,19.60
2019-05-06T12:55:54.136Z,13.60
2019-05-06T12:58:26.386Z,17.20
2019-05-06T13:00:58.291Z,18.20
2019-05-06T13:03:31.721Z,17.60
2019-05-06T13:06:07.490Z,15.40
2019-05-06T13:08:53.966Z,17.20
2019-05-06T13:11:13.192Z,17.20
2019-05-06T13:13:59.330Z,19.20
2019-05-06T13:16:22.673Z,23.20
2019-05-06T13:18:54.965Z,19.80
2019-05-06T13:21:27.668Z,20.00
2019-05-06T13:24:04.714Z,19.00
2019-05-06T13:26:36.912Z,21.40
2019-05-06T13:29:18.173Z,19.60
2019-05-06T13:31:52.811Z,19.60
2019-05-06T13:34:23.636Z,22.20
2019-05-06T13:36:55.807Z,19.80
2019-05-06T13:39:27.607Z,17.80
2019-05-06T13:41:59.548Z,19.60
2019-05-06T13:44:32.024Z,25.80
2019-05-06T13:47:04.942Z,21.40
2019-05-06T13:49:54.988Z,24.60
2019-05-06T13:52:29.440Z,21.40
2019-05-06T13:55:02.529Z,26.40
2019-05-06T13:57:34.380Z,27.80
2019-05-06T14:00:06.715Z,25.80
2019-05-06T14:02:53.120Z,25.20
2019-05-06T14:05:24.725Z,26.00
2019-05-06T14:07:56.531Z,29.60
2019-05-06T14:10:28.449Z,28.00
2019-05-06T14:13:02.457Z,29.20
2019-05-06T14:15:34.447Z,30.00
2019-05-06T14:18:06.758Z,29.40
2019-05-06T14:20:38.384Z,32.80
2019-05-06T14:23:12.621Z,24.00
2019-05-06T14:26:06.481Z,24.00
2019-05-06T14:28:54.874Z,29.60
2019-05-06T14:31:32.702Z,27.60
2019-05-06T14:34:04.599Z,30.80
2019-05-06T14:36:36.575Z,30.80
2019-05-06T14:39:12.709Z,33.40
2019-05-06T14:41:47.451Z,30.80
2019-05-06T14:44:19.170Z,24.60
2019-05-06T14:46:58.994Z,34.60
2019-05-06T14:49:32.591Z,36.60
2019-05-06T14:52:04.428Z,31.60
2019-05-06T14:54:49.403Z,37.20
2019-05-06T14:57:22.824Z,42.00
2019-05-06T14:59:55.759Z,35.20
2019-05-06T15:02:33.746Z,41.40
2019-05-06T15:05:14.363Z,44.60
2019-05-06T15:08:06.674Z,45.40
2019-05-06T15:10:38.669Z,41.80
2019-05-06T15:13:12.609Z,46.80
2019-05-06T15:15:44.589Z,45.60
2019-05-06T15:18:16.476Z,44.00
2019-05-06T15:20:48.422Z,39.80
2019-05-06T15:23:22.413Z,44.40
2019-05-06T15:25:54.088Z,42.00
2019-05-06T15:28:26.107Z,46.80
2019-05-06T15:31:19.310Z,44.80
2019-05-06T15:33:52.971Z,41.40
2019-05-06T15:36:36.236Z,40.40
2019-05-06T15:39:08.656Z,47.00
2019-05-06T15:41:42.532Z,49.00
2019-05-06T15:44:14.175Z,42.20
2019-05-06T15:46:45.866Z,47.60
2019-05-06T15:49:17.715Z,40.40
2019-05-06T15:51:49.613Z,43.00
2019-05-06T15:54:22.674Z,43.40
2019-05-06T15:56:54.550Z,38.40
2019-05-06T15:59:26.325Z,27.60
2019-05-06T16:01:58.286Z,42.60
2019-05-06T16:04:32.265Z,44.60
2019-05-06T16:07:05.791Z,46.00
2019-05-06T16:09:37.338Z,48.00
2019-05-06T16:12:08.991Z,44.60
2019-05-06T16:14:42.468Z,43.20
2019-05-06T16:17:15.209Z,45.00
2019-05-06T16:19:46.487Z,45.20
2019-05-06T16:22:18.076Z,49.80
2019-05-06T16:24:54.513Z,44.80
2019-05-06T16:27:26.104Z,44.60
2019-05-06T16:29:58.183Z,45.00
2019-05-06T16:32:29.972Z,46.20
2019-05-06T16:35:01.607Z,46.20
2019-05-06T16:37:33.723Z,50.60
2019-05-06T16:40:07.013Z,44.80
2019-05-06T16:42:42.533Z,52.60
2019-05-06T16:45:14.070Z,47.00
2019-05-06T16:48:19.752Z,51.00
2019-05-06T16:50:51.366Z,58.60
2019-05-06T16:53:23.385Z,56.00
2019-05-06T16:56:13.246Z,54.00
2019-05-06T16:58:49.348Z,51.40
2019-05-06T17:01:27.166Z,54.20
2019-05-06T17:04:14.263Z,56.80
2019-05-06T17:06:47.339Z,45.60
2019-05-06T17:09:24.228Z,47.40
2019-05-06T17:11:56.142Z,47.60
2019-05-06T17:14:32.137Z,51.40
2019-05-06T17:17:08.398Z,43.60
2019-05-06T17:19:42.066Z,49.40
2019-05-06T17:22:13.664Z,47.20
2019-05-06T17:24:48.327Z,49.60
2019-05-06T17:27:19.092Z,41.60
2019-05-06T17:29:58.551Z,49.20
2019-05-06T17:32:43.434Z,50.60
2019-05-06T17:35:17.403Z,51.00
2019-05-06T17:38:02.251Z,49.20
2019-05-06T17:40:34.085Z,49.40
2019-05-06T17:43:06.130Z,51.40
2019-05-06T17:46:02.370Z,49.80
2019-05-06T17:49:02.244Z,52.80
2019-05-06T17:51:42.952Z,46.40
2019-05-06T17:54:15.596Z,49.20
2019-05-06T17:56:49.720Z,53.60
2019-05-06T17:59:21.483Z,52.60
2019-05-06T18:01:55.019Z,52.00
2019-05-06T18:04:27.342Z,49.00
2019-05-06T18:06:59.009Z,53.80
2019-05-06T18:09:32.963Z,55.00
2019-05-06T18:12:04.502Z,50.20
2019-05-06T18:14:36.372Z,47.40
2019-05-06T18:17:08.022Z,49.00
2019-05-06T18:19:40.345Z,51.60
2019-05-06T18:22:13.176Z,52.80
2019-05-06T18:24:45.632Z,54.60
2019-05-06T18:27:17.382Z,46.80
2019-05-06T18:29:50.030Z,53.60
2019-05-06T18:32:23.374Z,51.40
2019-05-06T18:34:55.568Z,56.20
2019-05-06T18:37:27.420Z,56.60
2019-05-06T18:40:00.297Z,52.40
2019-05-06T18:42:33.009Z,56.20
2019-05-06T18:45:07.058Z,58.00
2019-05-06T18:47:38.876Z,60.80
2019-05-06T18:50:12.769Z,53.20
2019-05-06T18:52:44.353Z,52.20
2019-05-06T18:55:16.486Z,56.20
2019-05-06T18:57:48.584Z,57.20
2019-05-06T19:00:22.521Z,54.60
2019-05-06T19:02:54.377Z,54.40
2019-05-06T19:05:32.843Z,54.40
2019-05-06T19:08:08.463Z,56.20
2019-05-06T19:10:42.323Z,57.20
2019-05-06T19:13:15.043Z,59.80
2019-05-06T19:15:46.830Z,56.60
2019-05-06T19:18:18.878Z,56.80
2019-05-06T19:20:52.951Z,55.60
2019-05-06T19:23:24.547Z,56.20
2019-05-06T19:25:56.126Z,55.40
2019-05-06T19:28:27.885Z,53.40
2019-05-06T19:30:59.563Z,61.20
2019-05-06T19:33:43.783Z,57.20
2019-05-06T19:36:15.622Z,58.00
2019-05-06T19:38:47.328Z,57.20
2019-05-06T19:41:19.378Z,58.80
2019-05-06T19:43:52.375Z,60.80
2019-05-06T19:46:24.079Z,59.60
2019-05-06T19:48:55.882Z,60.60
2019-05-06T19:51:28.200Z,52.80
2019-05-06T19:54:02.077Z,56.60
2019-05-06T19:56:33.192Z,60.20
2019-05-06T19:59:05.123Z,56.00
2019-05-06T20:01:36.943Z,56.00
2019-05-06T20:04:08.752Z,58.40
2019-05-06T20:07:17.755Z,61.40
2019-05-06T20:10:14.913Z,53.20
2019-05-06T20:12:59.426Z,54.00
2019-05-06T20:15:37.663Z,51.00
2019-05-06T20:18:29.227Z,52.40
2019-05-06T20:21:01.451Z,47.00
2019-05-06T20:23:36.867Z,52.00
2019-05-06T20:26:08.743Z,49.20
2019-05-06T20:28:42.794Z,47.60
2019-05-06T20:31:14.165Z,41.40
2019-05-06T20:33:45.980Z,47.20
2019-05-06T20:36:17.457Z,47.40
2019-05-06T20:38:49.291Z,41.40
2019-05-06T20:41:22.174Z,49.20
2019-05-06T20:43:54.057Z,41.80
2019-05-06T20:46:25.739Z,43.80
2019-05-06T20:48:57.435Z,45.40
2019-05-06T20:51:29.255Z,50.20
2019-05-06T20:54:01.520Z,48.60
2019-05-06T20:56:33.217Z,46.80
2019-05-06T20:59:04.970Z,47.00
2019-05-06T21:01:36.649Z,49.00
2019-05-06T21:04:08.498Z,44.60
2019-05-06T21:06:42.423Z,47.40
2019-05-06T21:09:14.018Z,47.60
2019-05-06T21:11:45.662Z,46.60
2019-05-06T21:14:17.437Z,45.60
2019-05-06T21:16:49.355Z,45.40
2019-05-06T21:19:22.322Z,50.60
2019-05-06T21:21:54.650Z,47.80
2019-05-06T21:24:26.726Z,41.60
2019-05-06T21:26:58.592Z,47.20
2019-05-06T21:29:32.330Z,43.20
2019-05-06T21:32:03.818Z,45.80
2019-05-06T21:34:35.513Z,45.20
2019-05-06T21:37:08.437Z,49.40
2019-05-06T21:39:42.246Z,47.60
2019-05-06T21:42:14.974Z,46.60
2019-05-06T21:44:46.561Z,48.80
2019-05-06T21:47:18.331Z,47.40
2019-05-06T21:49:50.055Z,49.00
2019-05-06T21:52:34.334Z,48.60
2019-05-06T21:54:55.373Z,47.00
2019-05-06T21:57:27.042Z,46.20
2019-05-06T21:59:59.404Z,42.20
2019-05-06T22:02:32.727Z,49.40
2019-05-06T22:05:04.584Z,45.20
2019-05-06T22:07:36.885Z,35.60
2019-05-06T22:10:08.855Z,44.20
2019-05-06T22:12:43.161Z,44.40
2019-05-06T22:15:14.638Z,41.20
2019-05-06T22:17:46.572Z,43.20
2019-05-06T22:20:18.144Z,46.40
2019-05-06T22:22:52.072Z,45.60
2019-05-06T22:25:23.556Z,44.80
2019-05-06T22:27:55.383Z,41.80
2019-05-06T22:30:27.276Z,49.60
2019-05-06T22:32:59.135Z,46.00
2019-05-06T22:35:32.513Z,43.80
2019-05-06T22:38:04.976Z,47.20
2019-05-06T22:40:36.739Z,46.00
2019-05-06T22:43:08.256Z,47.60
2019-05-06T22:45:42.555Z,47.60
2019-05-06T22:48:14.788Z,50.80
2019-05-06T22:50:47.258Z,47.80
2019-05-06T22:53:18.973Z,47.00
2019-05-06T22:55:50.761Z,46.40
2019-05-06T22:58:22.834Z,47.60
2019-05-06T23:00:55.093Z,49.80
2019-05-06T23:03:27.472Z,45.80
2019-05-06T23:05:59.050Z,51.80
2019-05-06T23:08:32.500Z,49.80
2019-05-06T23:11:04.591Z,51.00
2019-05-06T23:13:39.170Z,51.60
2019-05-06T23:16:12.781Z,50.20
2019-05-06T23:18:45.141Z,50.80
2019-05-06T23:21:16.801Z,47.60
2019-05-06T23:23:48.755Z,51.40
2019-05-06T23:26:22.831Z,51.80
2019-05-06T23:28:54.415Z,49.20
2019-05-06T23:31:26.265Z,50.60
2019-05-06T23:33:58.364Z,45.20
2019-05-06T23:36:34.164Z,48.80
2019-05-06T23:39:58.793Z,45.60
2019-05-06T23:43:05.133Z,40.60
2019-05-06T23:46:12.154Z,48.40
2019-05-06T23:49:18.490Z,48.40
2019-05-06T23:52:24.814Z,52.00
2019-05-06T23:55:31.523Z,45.00
2019-05-06T23:58:00.814Z,42.00
